createdAt,value
2019-02-02T00:01:04.530Z,0
2019-02-02T00:02:14.374Z,0
2019-02-02T00:03:24.456Z,0
2019-02-02T00:04:34.558Z,0
2019-02-02T00:05:44.771Z,0
2019-02-02T00:06:54.671Z,0
2019-02-02T00:08:04.799Z,0
2019-02-02T00:09:15.138Z,0
2019-02-02T00:10:25.659Z,0
2019-02-02T00:11:35.970Z,0
2019-02-02T00:12:46.153Z,0
2019-02-02T00:13:56.238Z,0
2019-02-02T00:15:06.313Z,0
2019-02-02T00:16:16.664Z,0
2019-02-02T00:17:26.772Z,0
2019-02-02T00:18:36.916Z,0
2019-02-02T00:19:47.210Z,0
2019-02-02T00:20:57.326Z,0
2019-02-02T00:22:07.579Z,0
2019-02-02T00:23:17.728Z,0
2019-02-02T00:24:27.954Z,0
2019-02-02T00:25:38.033Z,0
2019-02-02T00:26:48.344Z,0
2019-02-02T00:27:58.688Z,0
2019-02-02T00:29:10.551Z,0
2019-02-02T00:30:20.337Z,0
2019-02-02T00:31:30.433Z,0
2019-02-02T00:32:40.304Z,0
2019-02-02T00:33:50.421Z,0
2019-02-02T00:35:00.511Z,0
2019-02-02T00:36:12.128Z,0
2019-02-02T00:37:22.227Z,0
2019-02-02T00:38:32.170Z,0
2019-02-02T00:39:42.246Z,0
2019-02-02T00:40:52.585Z,0
2019-02-02T00:42:02.725Z,0
2019-02-02T00:43:12.826Z,0
2019-02-02T00:44:22.929Z,0
2019-02-02T00:45:33.115Z,0
2019-02-02T00:46:43.199Z,0
2019-02-02T00:47:53.283Z,0
2019-02-02T00:49:06.381Z,0
2019-02-02T00:50:16.464Z,0
2019-02-02T00:51:26.573Z,0
2019-02-02T00:52:36.476Z,0
2019-02-02T00:53:46.639Z,0
2019-02-02T00:54:56.543Z,0
2019-02-02T00:56:06.729Z,0
2019-02-02T00:57:16.831Z,0
2019-02-02T00:58:27.013Z,0
2019-02-02T00:59:37.152Z,0
2019-02-02T01:00:47.248Z,0
2019-02-02T01:01:57.359Z,0
2019-02-02T01:03:07.216Z,0
2019-02-02T01:04:17.351Z,0
2019-02-02T01:05:27.184Z,0
2019-02-02T01:06:37.319Z,0
2019-02-02T01:07:47.458Z,0
2019-02-02T01:08:57.347Z,0
2019-02-02T01:10:07.579Z,0
2019-02-02T01:11:17.815Z,0
2019-02-02T01:12:27.905Z,0
2019-02-02T01:13:37.729Z,0
2019-02-02T01:14:47.812Z,0
2019-02-02T01:15:58.028Z,0
2019-02-02T01:17:10.721Z,0
2019-02-02T01:18:20.807Z,0
2019-02-02T01:19:30.920Z,0
2019-02-02T01:20:41.073Z,0
2019-02-02T01:21:51.409Z,0
2019-02-02T01:23:01.560Z,0
2019-02-02T01:24:11.410Z,0
2019-02-02T01:25:21.491Z,0
2019-02-02T01:26:31.940Z,0
2019-02-02T01:27:42.093Z,0
2019-02-02T01:28:52.223Z,0
2019-02-02T01:30:02.373Z,0
2019-02-02T01:31:12.458Z,0
2019-02-02T01:32:23.713Z,0
2019-02-02T01:33:33.311Z,0
2019-02-02T01:34:43.451Z,0
2019-02-02T01:35:53.282Z,0
2019-02-02T01:37:04.978Z,0
2019-02-02T01:38:14.818Z,0
2019-02-02T01:39:24.906Z,0
2019-02-02T01:40:35.036Z,0
2019-02-02T01:41:45.122Z,0
2019-02-02T01:42:55.225Z,0
2019-02-02T01:44:06.321Z,0
2019-02-02T01:45:16.411Z,0
2019-02-02T01:46:26.286Z,0
2019-02-02T01:47:36.376Z,0
2019-02-02T01:48:46.459Z,0
2019-02-02T01:49:56.546Z,0
2019-02-02T01:51:06.353Z,0
2019-02-02T01:52:16.755Z,0
2019-02-02T01:53:26.848Z,0
2019-02-02T01:54:38.396Z,0
2019-02-02T01:55:48.681Z,0
2019-02-02T01:56:58.762Z,0
2019-02-02T01:58:21.374Z,0
2019-02-02T01:59:31.725Z,0
2019-02-02T02:00:41.817Z,0
2019-02-02T02:01:51.908Z,0
2019-02-02T02:03:02.080Z,0
2019-02-02T02:04:12.239Z,0
2019-02-02T02:05:22.333Z,0
2019-02-02T02:06:32.448Z,0
2019-02-02T02:07:42.625Z,0
2019-02-02T02:08:52.941Z,0
2019-02-02T02:10:03.016Z,0
2019-02-02T02:11:13.129Z,0
2019-02-02T02:12:22.963Z,0
2019-02-02T02:13:33.042Z,0
2019-02-02T02:14:43.198Z,0
2019-02-02T02:15:53.296Z,0
2019-02-02T02:17:06.000Z,0
2019-02-02T02:18:15.824Z,0
2019-02-02T02:19:25.914Z,0
2019-02-02T02:20:36.011Z,0
2019-02-02T02:21:46.089Z,0
2019-02-02T02:22:56.151Z,0
2019-02-02T02:24:07.505Z,0
2019-02-02T02:25:17.597Z,0
2019-02-02T02:26:27.788Z,0
2019-02-02T02:27:37.664Z,0
2019-02-02T02:28:47.732Z,0
2019-02-02T02:29:57.834Z,0
2019-02-02T02:31:09.816Z,0
2019-02-02T02:32:19.996Z,0
2019-02-02T02:33:29.333Z,0
2019-02-02T02:34:39.437Z,0
2019-02-02T02:35:49.542Z,0
2019-02-02T02:36:59.707Z,0
2019-02-02T02:38:10.524Z,0
2019-02-02T02:39:20.947Z,0
2019-02-02T02:40:31.303Z,0
2019-02-02T02:41:41.388Z,0
2019-02-02T02:42:51.466Z,0
2019-02-02T02:44:01.360Z,0
2019-02-02T02:45:11.487Z,0
2019-02-02T02:46:21.568Z,0
2019-02-02T02:47:31.700Z,0
2019-02-02T02:48:41.894Z,0
2019-02-02T02:49:51.993Z,0
2019-02-02T02:51:02.097Z,0
2019-02-02T02:52:12.195Z,0
2019-02-02T02:53:22.305Z,0
2019-02-02T02:54:32.402Z,0
2019-02-02T02:55:42.405Z,0
2019-02-02T02:56:52.247Z,0
2019-02-02T02:58:03.101Z,0
2019-02-02T02:59:13.239Z,0
2019-02-02T03:00:23.604Z,0
2019-02-02T03:01:33.678Z,0
2019-02-02T03:02:43.768Z,0
2019-02-02T03:35:02.029Z,0
2019-02-02T03:36:13.661Z,0
2019-02-02T03:37:23.767Z,0
2019-02-02T03:38:33.868Z,0
2019-02-02T03:39:44.210Z,0
2019-02-02T03:40:54.342Z,0
2019-02-02T03:42:03.904Z,0
2019-02-02T03:43:13.778Z,0
2019-02-02T03:44:23.870Z,0
2019-02-02T03:45:34.002Z,0
2019-02-02T03:46:44.198Z,0
2019-02-02T03:47:54.673Z,0
2019-02-02T03:49:05.500Z,0
2019-02-02T03:50:15.730Z,0
2019-02-02T03:51:25.857Z,0
2019-02-02T03:52:36.306Z,0
2019-02-02T03:53:48.760Z,0
2019-02-02T03:54:58.698Z,0
2019-02-02T03:56:08.769Z,0
2019-02-02T03:57:19.228Z,0
2019-02-02T03:58:29.522Z,0
2019-02-02T03:59:39.640Z,0
2019-02-02T04:00:49.887Z,0
2019-02-02T04:01:59.971Z,0
2019-02-02T04:03:10.036Z,0
2019-02-02T04:04:19.879Z,0
2019-02-02T04:05:29.969Z,0
2019-02-02T04:06:40.297Z,0
2019-02-02T04:07:50.413Z,0
2019-02-02T04:09:01.924Z,0
2019-02-02T04:10:13.341Z,0
2019-02-02T04:11:23.428Z,0
2019-02-02T04:12:33.729Z,0
2019-02-02T04:13:43.856Z,0
2019-02-02T04:14:53.936Z,0
2019-02-02T04:16:04.126Z,0
2019-02-02T04:17:14.208Z,0
2019-02-02T04:18:24.265Z,0
2019-02-02T04:19:34.321Z,0
2019-02-02T04:20:44.124Z,0
2019-02-02T04:21:54.201Z,0
2019-02-02T04:23:04.507Z,0
2019-02-02T04:24:14.564Z,0
2019-02-02T04:25:24.880Z,0
2019-02-02T04:26:34.888Z,0
2019-02-02T04:27:45.014Z,0
2019-02-02T04:28:55.093Z,0
2019-02-02T04:30:08.050Z,0
2019-02-02T04:31:18.155Z,0
2019-02-02T04:32:27.977Z,0
2019-02-02T04:33:37.818Z,0
2019-02-02T04:34:47.897Z,0
2019-02-02T04:35:57.969Z,0
2019-02-02T04:37:08.424Z,0
2019-02-02T04:38:18.483Z,0
2019-02-02T04:39:28.297Z,0
2019-02-02T04:40:38.377Z,0
2019-02-02T04:41:48.452Z,0
2019-02-02T04:43:01.501Z,0
2019-02-02T04:44:11.958Z,0
2019-02-02T04:45:23.072Z,0
2019-02-02T04:46:33.152Z,0
2019-02-02T04:47:42.966Z,0
2019-02-02T04:48:53.075Z,0
2019-02-02T04:50:03.220Z,0
2019-02-02T04:51:13.284Z,0
2019-02-02T04:52:23.325Z,0
2019-02-02T04:53:33.141Z,0
2019-02-02T04:54:42.950Z,0
2019-02-02T04:55:53.003Z,0
2019-02-02T04:57:02.818Z,0
2019-02-02T04:58:12.620Z,0
2019-02-02T04:59:33.849Z,0
2019-02-02T05:00:43.694Z,0
2019-02-02T05:01:53.551Z,0
2019-02-02T05:03:03.916Z,0
2019-02-02T05:04:13.754Z,0
2019-02-02T05:05:23.806Z,0
2019-02-02T05:06:33.875Z,0
2019-02-02T05:07:44.007Z,0
2019-02-02T05:08:53.562Z,0
2019-02-02T05:10:05.650Z,0
2019-02-02T05:11:15.699Z,0
2019-02-02T05:12:25.517Z,0
2019-02-02T05:13:35.069Z,0
2019-02-02T05:14:45.181Z,0
2019-02-02T05:15:55.474Z,0
2019-02-02T05:17:06.364Z,0
2019-02-02T05:18:16.421Z,0
2019-02-02T05:19:26.314Z,0
2019-02-02T05:20:36.439Z,0
2019-02-02T05:21:46.518Z,0
2019-02-02T05:22:56.595Z,0
2019-02-02T05:24:06.426Z,0
2019-02-02T05:25:16.339Z,0
2019-02-02T05:26:26.445Z,0
2019-02-02T05:27:35.993Z,0
2019-02-02T05:28:46.055Z,0
2019-02-02T05:29:55.871Z,0
2019-02-02T05:31:06.223Z,0
2019-02-02T05:32:16.197Z,0
2019-02-02T05:33:26.258Z,0
2019-02-02T05:34:36.334Z,0
2019-02-02T05:35:46.406Z,0
2019-02-02T05:36:56.313Z,0
2019-02-02T05:38:07.833Z,0
2019-02-02T05:39:17.906Z,0
2019-02-02T05:40:28.087Z,0
2019-02-02T05:41:38.174Z,0
2019-02-02T05:42:48.602Z,0
2019-02-02T05:43:58.693Z,0
2019-02-02T05:45:08.756Z,0
2019-02-02T05:46:18.908Z,0
2019-02-02T05:47:28.453Z,0
2019-02-02T05:48:38.377Z,0
2019-02-02T05:49:49.621Z,0
2019-02-02T05:51:00.379Z,0
2019-02-02T05:52:10.459Z,0
2019-02-02T05:53:20.501Z,0
2019-02-02T05:54:30.574Z,0
2019-02-02T05:55:40.835Z,0
2019-02-02T05:56:50.928Z,0
2019-02-02T05:58:03.160Z,0
2019-02-02T05:59:13.240Z,0
2019-02-02T06:00:24.123Z,0
2019-02-02T06:01:37.241Z,0
2019-02-02T06:02:47.369Z,0
2019-02-02T06:03:57.272Z,0
2019-02-02T06:05:07.383Z,0
2019-02-02T06:06:17.440Z,0
2019-02-02T06:07:26.987Z,0
2019-02-02T06:08:37.390Z,0
2019-02-02T06:09:47.208Z,0
2019-02-02T06:10:57.283Z,0
2019-02-02T06:12:07.607Z,0
2019-02-02T06:13:17.663Z,0
2019-02-02T06:14:27.723Z,0
2019-02-02T06:15:38.440Z,0
2019-02-02T06:16:48.519Z,0
2019-02-02T06:17:58.414Z,0
2019-02-02T06:19:08.547Z,0
2019-02-02T06:20:18.921Z,0
2019-02-02T06:21:29.021Z,0
2019-02-02T06:22:39.073Z,0
2019-02-02T06:23:49.386Z,0
2019-02-02T06:25:02.376Z,0
2019-02-02T06:26:12.435Z,0
2019-02-02T06:27:22.755Z,0
2019-02-02T06:28:33.419Z,0
2019-02-02T06:29:43.293Z,0
2019-02-02T06:30:53.466Z,0
2019-02-02T06:32:14.532Z,0
2019-02-02T06:33:24.631Z,0
2019-02-02T06:34:34.467Z,0
2019-02-02T06:35:44.537Z,0
2019-02-02T06:36:54.615Z,0
2019-02-02T06:38:04.901Z,0
2019-02-02T06:39:15.411Z,0
2019-02-02T06:40:25.481Z,0
2019-02-02T06:41:35.643Z,0
2019-02-02T06:42:45.562Z,0
2019-02-02T06:43:55.628Z,0
2019-02-02T06:45:05.440Z,0
2019-02-02T06:46:15.281Z,0
2019-02-02T06:47:25.466Z,0
2019-02-02T06:48:35.530Z,0
2019-02-02T06:49:45.346Z,0
2019-02-02T06:50:55.205Z,0
2019-02-02T06:52:04.811Z,5
2019-02-02T06:53:14.919Z,5
2019-02-02T06:54:25.050Z,5
2019-02-02T06:55:35.387Z,5
2019-02-02T06:56:45.484Z,5
2019-02-02T06:57:55.711Z,5
2019-02-02T06:59:07.576Z,5
2019-02-02T07:00:28.915Z,5
2019-02-02T07:01:38.990Z,5
2019-02-02T07:02:48.816Z,10
2019-02-02T07:03:58.882Z,10
2019-02-02T07:05:09.136Z,10
2019-02-02T07:06:19.253Z,10
2019-02-02T07:07:29.420Z,10
2019-02-02T07:08:39.490Z,10
2019-02-02T07:09:49.609Z,10
2019-02-02T07:10:59.694Z,15
2019-02-02T07:12:09.884Z,15
2019-02-02T07:13:19.701Z,15
2019-02-02T07:14:29.539Z,15
2019-02-02T07:15:39.611Z,15
2019-02-02T07:16:49.463Z,15
2019-02-02T07:17:59.541Z,15
2019-02-02T07:19:09.366Z,15
2019-02-02T07:20:19.598Z,15
2019-02-02T07:21:29.745Z,15
2019-02-02T07:22:39.889Z,15
2019-02-02T07:23:49.965Z,15
2019-02-02T07:25:00.037Z,20
2019-02-02T07:26:10.991Z,20
2019-02-02T07:27:21.363Z,25
2019-02-02T07:28:31.440Z,25
2019-02-02T07:29:41.299Z,30
2019-02-02T07:30:51.181Z,30
2019-02-02T07:32:01.257Z,35
2019-02-02T07:33:11.101Z,35
2019-02-02T07:34:21.196Z,35
2019-02-02T07:35:31.285Z,35
2019-02-02T07:36:41.376Z,35
2019-02-02T07:37:51.549Z,35
2019-02-02T07:39:02.727Z,35
2019-02-02T07:40:13.003Z,35
2019-02-02T07:41:22.825Z,35
2019-02-02T07:42:32.942Z,35
2019-02-02T07:43:43.042Z,35
2019-02-02T07:44:53.257Z,35
2019-02-02T07:46:16.974Z,35
2019-02-02T07:47:27.050Z,35
2019-02-02T07:48:37.127Z,35
2019-02-02T07:49:46.934Z,35
2019-02-02T07:50:57.015Z,35
2019-02-02T07:52:06.837Z,35
2019-02-02T07:53:16.921Z,35
2019-02-02T07:54:26.753Z,35
2019-02-02T07:55:36.378Z,35
2019-02-02T07:56:46.463Z,40
2019-02-02T07:57:56.582Z,45
2019-02-02T07:59:06.504Z,50
2019-02-02T08:00:18.531Z,55
2019-02-02T08:01:28.606Z,60
2019-02-02T08:02:38.678Z,60
2019-02-02T08:03:48.765Z,65
2019-02-02T08:04:58.847Z,65
2019-02-02T08:06:08.971Z,70
2019-02-02T08:07:19.622Z,75
2019-02-02T08:08:29.689Z,75
2019-02-02T08:09:39.482Z,75
2019-02-02T08:10:49.770Z,75
2019-02-02T08:11:59.843Z,75
2019-02-02T08:13:09.901Z,75
2019-02-02T08:14:21.320Z,70
2019-02-02T08:15:31.494Z,70
2019-02-02T08:16:41.818Z,75
2019-02-02T08:17:51.938Z,75
2019-02-02T08:19:02.028Z,75
2019-02-02T08:20:12.132Z,75
2019-02-02T08:21:22.210Z,70
2019-02-02T08:22:32.053Z,60
2019-02-02T08:23:42.150Z,60
2019-02-02T08:24:51.994Z,50
2019-02-02T08:26:05.081Z,50
2019-02-02T08:27:15.261Z,50
2019-02-02T08:28:26.739Z,50
2019-02-02T08:29:36.890Z,45
2019-02-02T08:30:59.033Z,50
2019-02-02T08:32:09.115Z,50
2019-02-02T08:33:19.263Z,50
2019-02-02T08:34:29.345Z,50
2019-02-02T08:35:39.319Z,50
2019-02-02T08:36:49.423Z,45
2019-02-02T08:37:59.086Z,50
2019-02-02T08:39:10.055Z,45
2019-02-02T08:40:20.240Z,40
2019-02-02T08:41:30.410Z,40
2019-02-02T08:42:40.535Z,45
2019-02-02T08:43:50.623Z,45
2019-02-02T08:45:00.913Z,45
2019-02-02T08:46:10.985Z,50
2019-02-02T08:47:21.078Z,50
2019-02-02T08:48:31.430Z,50
2019-02-02T08:49:42.922Z,55
2019-02-02T08:50:53.047Z,55
2019-02-02T08:52:03.170Z,60
2019-02-02T08:53:13.066Z,65
2019-02-02T08:54:23.939Z,75
2019-02-02T08:55:34.344Z,90
2019-02-02T08:56:44.550Z,100
2019-02-02T08:57:54.272Z,105
2019-02-02T08:59:04.468Z,90
2019-02-02T09:00:15.978Z,95
2019-02-02T09:01:26.082Z,120
2019-02-02T09:02:36.215Z,130
2019-02-02T09:03:46.455Z,135
2019-02-02T09:04:56.790Z,150
2019-02-02T09:06:07.139Z,155
2019-02-02T09:07:17.250Z,160
2019-02-02T09:08:27.328Z,175
2019-02-02T09:09:37.398Z,175
2019-02-02T09:10:47.475Z,175
2019-02-02T09:11:58.592Z,165
2019-02-02T09:13:08.847Z,145
2019-02-02T09:14:18.932Z,140
2019-02-02T09:15:29.000Z,135
2019-02-02T09:16:39.096Z,135
2019-02-02T09:17:50.385Z,135
2019-02-02T09:19:00.874Z,135
2019-02-02T09:20:10.950Z,140
2019-02-02T09:21:21.065Z,140
2019-02-02T09:22:31.154Z,140
2019-02-02T09:23:41.283Z,140
2019-02-02T09:24:54.355Z,130
2019-02-02T09:26:04.758Z,135
2019-02-02T09:27:14.578Z,135
2019-02-02T09:28:24.716Z,135
2019-02-02T09:29:34.890Z,135
2019-02-02T09:30:44.736Z,135
2019-02-02T09:31:55.071Z,130
2019-02-02T09:33:05.362Z,135
2019-02-02T09:34:15.450Z,145
2019-02-02T09:35:25.613Z,135
2019-02-02T09:36:35.689Z,130
2019-02-02T09:37:45.788Z,130
2019-02-02T09:38:55.904Z,115
2019-02-02T09:40:06.698Z,115
2019-02-02T09:41:16.599Z,115
2019-02-02T09:42:26.496Z,110
2019-02-02T09:43:39.391Z,115
2019-02-02T09:44:49.847Z,105
2019-02-02T09:45:59.921Z,95
2019-02-02T09:47:09.828Z,80
2019-02-02T09:48:19.954Z,75
2019-02-02T09:49:29.892Z,75
2019-02-02T09:50:39.968Z,75
2019-02-02T09:51:50.052Z,80
2019-02-02T09:53:00.149Z,80
2019-02-02T09:54:11.740Z,80
2019-02-02T09:55:21.829Z,80
2019-02-02T09:56:31.935Z,80
2019-02-02T09:57:44.228Z,80
2019-02-02T09:58:54.390Z,75
2019-02-02T10:00:04.880Z,75
2019-02-02T10:01:14.990Z,75
2019-02-02T10:02:26.971Z,75
2019-02-02T10:03:37.743Z,75
2019-02-02T10:04:47.814Z,75
2019-02-02T10:05:58.024Z,75
2019-02-02T10:07:10.247Z,75
2019-02-02T10:08:20.342Z,75
2019-02-02T10:09:30.426Z,75
2019-02-02T10:10:40.579Z,75
2019-02-02T10:11:50.757Z,75
2019-02-02T10:13:00.600Z,75
2019-02-02T10:14:10.689Z,75
2019-02-02T10:15:20.765Z,75
2019-02-02T10:16:30.631Z,75
2019-02-02T10:17:40.761Z,75
2019-02-02T10:18:51.050Z,75
2019-02-02T10:20:01.193Z,85
2019-02-02T10:21:13.975Z,95
2019-02-02T10:22:24.041Z,100
2019-02-02T10:23:34.229Z,100
2019-02-02T10:24:44.455Z,100
2019-02-02T10:25:54.287Z,105
2019-02-02T10:27:04.387Z,100
2019-02-02T10:28:16.670Z,100
2019-02-02T10:29:26.843Z,100
2019-02-02T10:30:36.974Z,100
2019-02-02T10:31:49.556Z,100
2019-02-02T10:32:59.689Z,100
2019-02-02T10:34:12.272Z,105
2019-02-02T10:35:22.585Z,110
2019-02-02T10:36:32.729Z,120
2019-02-02T10:37:42.927Z,115
2019-02-02T10:38:52.879Z,110
2019-02-02T10:40:03.629Z,110
2019-02-02T10:41:13.690Z,115
2019-02-02T10:42:24.169Z,120
2019-02-02T10:43:34.541Z,120
2019-02-02T10:44:44.401Z,145
2019-02-02T10:45:54.002Z,155
2019-02-02T10:47:04.081Z,180
2019-02-02T10:48:14.248Z,160
2019-02-02T10:49:24.405Z,175
2019-02-02T10:50:34.472Z,155
2019-02-02T10:51:44.575Z,195
2019-02-02T10:52:54.653Z,195
2019-02-02T10:54:08.137Z,205
2019-02-02T10:55:17.982Z,175
2019-02-02T10:56:28.084Z,170
2019-02-02T10:57:37.925Z,170
2019-02-02T10:58:48.348Z,200
2019-02-02T10:59:58.778Z,180
2019-02-02T11:01:08.899Z,170
2019-02-02T11:02:20.345Z,210
2019-02-02T11:03:30.128Z,195
2019-02-02T11:04:40.537Z,215
2019-02-02T11:05:50.389Z,220
2019-02-02T11:07:03.159Z,225
2019-02-02T11:08:13.848Z,225
2019-02-02T11:09:24.490Z,175
2019-02-02T11:10:34.990Z,160
2019-02-02T11:11:45.421Z,210
2019-02-02T11:12:55.766Z,215
2019-02-02T11:14:06.009Z,215
2019-02-02T11:15:16.548Z,220
2019-02-02T11:16:26.716Z,220
2019-02-02T11:17:37.024Z,215
2019-02-02T11:18:47.475Z,180
2019-02-02T11:19:58.024Z,185
2019-02-02T11:21:08.761Z,165
2019-02-02T11:22:19.239Z,170
2019-02-02T11:23:29.668Z,175
2019-02-02T11:24:39.602Z,205
2019-02-02T11:25:50.242Z,230
2019-02-02T11:27:02.503Z,170
2019-02-02T11:28:12.955Z,185
2019-02-02T11:29:23.467Z,190
2019-02-02T11:30:34.691Z,185
2019-02-02T11:31:44.812Z,265
2019-02-02T11:32:54.627Z,200
2019-02-02T11:34:04.706Z,200
2019-02-02T11:35:14.777Z,260
2019-02-02T11:36:24.674Z,265
2019-02-02T11:37:34.772Z,255
2019-02-02T11:38:44.873Z,255
2019-02-02T11:39:55.487Z,255
2019-02-02T11:41:05.610Z,240
2019-02-02T11:42:15.685Z,235
2019-02-02T11:43:25.781Z,145
2019-02-02T11:44:35.627Z,140
2019-02-02T11:45:45.747Z,145
2019-02-02T11:46:55.618Z,140
2019-02-02T11:48:06.717Z,130
2019-02-02T11:49:17.425Z,125
2019-02-02T11:50:27.690Z,125
2019-02-02T11:51:37.971Z,125
2019-02-02T11:52:48.095Z,130
2019-02-02T11:53:58.192Z,125
2019-02-02T11:55:09.157Z,125
2019-02-02T11:56:19.270Z,120
2019-02-02T11:57:29.410Z,115
2019-02-02T11:58:39.581Z,110
2019-02-02T11:59:50.003Z,110
2019-02-02T12:00:59.841Z,115
2019-02-02T12:02:21.523Z,130
2019-02-02T12:03:31.595Z,135
2019-02-02T12:04:41.677Z,140
2019-02-02T12:05:52.149Z,130
2019-02-02T12:07:02.387Z,125
2019-02-02T12:08:12.911Z,120
2019-02-02T12:09:23.043Z,115
2019-02-02T12:10:33.114Z,115
2019-02-02T12:11:43.200Z,115
2019-02-02T12:12:53.290Z,115
2019-02-02T12:14:04.847Z,120
2019-02-02T12:15:14.929Z,120
2019-02-02T12:16:24.556Z,120
2019-02-02T12:17:34.678Z,120
2019-02-02T12:18:44.788Z,120
2019-02-02T12:19:54.933Z,125
2019-02-02T12:21:04.937Z,125
2019-02-02T12:22:15.031Z,125
2019-02-02T12:23:25.108Z,135
2019-02-02T12:24:34.674Z,135
2019-02-02T12:25:44.759Z,140
2019-02-02T12:26:54.842Z,135
2019-02-02T12:28:05.215Z,130
2019-02-02T12:29:15.297Z,130
2019-02-02T12:30:25.388Z,125
2019-02-02T12:31:35.472Z,125
2019-02-02T12:32:45.790Z,125
2019-02-02T12:33:55.854Z,130
2019-02-02T12:35:07.247Z,125
2019-02-02T12:36:17.359Z,125
2019-02-02T12:37:27.451Z,120
2019-02-02T12:38:37.541Z,110
2019-02-02T12:39:47.656Z,105
2019-02-02T12:40:59.614Z,100
2019-02-02T12:42:09.786Z,100
2019-02-02T12:43:21.439Z,105
2019-02-02T12:44:31.515Z,110
2019-02-02T12:45:41.842Z,115
2019-02-02T12:46:51.967Z,120
2019-02-02T12:48:03.312Z,125
2019-02-02T12:49:13.413Z,125
2019-02-02T12:50:23.488Z,125
2019-02-02T12:51:33.569Z,135
2019-02-02T12:52:43.785Z,135
2019-02-02T12:53:55.677Z,135
2019-02-02T12:55:05.978Z,130
2019-02-02T12:56:16.192Z,130
2019-02-02T12:57:26.342Z,140
2019-02-02T12:58:36.404Z,145
2019-02-02T12:59:47.776Z,135
2019-02-02T13:00:57.641Z,130
2019-02-02T13:02:07.472Z,130
2019-02-02T13:03:17.647Z,130
2019-02-02T13:04:27.810Z,120
2019-02-02T13:05:39.127Z,125
2019-02-02T13:07:04.126Z,120
2019-02-02T13:08:15.124Z,115
2019-02-02T13:09:25.015Z,115
2019-02-02T13:10:34.869Z,140
2019-02-02T13:11:45.059Z,150
2019-02-02T13:12:55.157Z,120
2019-02-02T13:14:05.113Z,110
2019-02-02T13:15:15.218Z,115
2019-02-02T13:16:25.094Z,145
2019-02-02T13:17:35.209Z,170
2019-02-02T13:18:45.396Z,175
2019-02-02T13:19:55.469Z,165
2019-02-02T13:21:05.803Z,170
2019-02-02T13:22:15.907Z,175
2019-02-02T13:23:25.972Z,170
2019-02-02T13:24:36.095Z,165
2019-02-02T13:25:46.182Z,150
2019-02-02T13:26:56.836Z,170
2019-02-02T13:28:08.292Z,175
2019-02-02T13:29:18.380Z,180
2019-02-02T13:30:28.534Z,160
2019-02-02T13:31:38.747Z,185
2019-02-02T13:32:59.655Z,190
2019-02-02T13:34:09.743Z,185
2019-02-02T13:35:19.887Z,185
2019-02-02T13:36:29.976Z,180
2019-02-02T13:37:40.059Z,175
2019-02-02T13:38:50.136Z,170
2019-02-02T13:40:00.512Z,170
2019-02-02T13:41:10.687Z,165
2019-02-02T13:42:20.885Z,165
2019-02-02T13:43:30.984Z,165
2019-02-02T13:44:41.293Z,160
2019-02-02T13:45:51.115Z,160
2019-02-02T13:47:01.031Z,145
2019-02-02T13:48:12.724Z,140
2019-02-02T13:49:22.858Z,135
2019-02-02T13:50:33.055Z,110
2019-02-02T13:51:43.157Z,95
2019-02-02T13:52:53.253Z,80
2019-02-02T13:54:03.583Z,75
2019-02-02T13:55:13.678Z,75
2019-02-02T13:56:23.752Z,75
2019-02-02T13:57:33.839Z,75
2019-02-02T13:58:43.968Z,80
2019-02-02T13:59:53.808Z,80
2019-02-02T14:01:03.639Z,70
2019-02-02T14:02:13.723Z,65
2019-02-02T14:03:23.811Z,55
2019-02-02T14:04:33.901Z,50
2019-02-02T14:05:43.992Z,45
2019-02-02T14:06:54.088Z,45
2019-02-02T14:08:07.747Z,45
2019-02-02T14:09:17.819Z,45
2019-02-02T14:10:27.745Z,50
2019-02-02T14:11:37.812Z,50
2019-02-02T14:12:47.873Z,55
2019-02-02T14:13:57.792Z,55
2019-02-02T14:15:08.032Z,60
2019-02-02T14:16:18.136Z,60
2019-02-02T14:17:28.252Z,70
2019-02-02T14:18:38.392Z,75
2019-02-02T14:19:48.421Z,70
2019-02-02T14:20:58.317Z,65
2019-02-02T14:22:08.664Z,55
2019-02-02T14:23:18.763Z,45
2019-02-02T14:24:28.842Z,40
2019-02-02T14:25:39.434Z,40
2019-02-02T14:26:49.523Z,40
2019-02-02T14:27:59.633Z,40
2019-02-02T14:29:09.713Z,40
2019-02-02T14:30:19.810Z,40
2019-02-02T14:31:29.891Z,40
2019-02-02T14:32:39.706Z,45
2019-02-02T14:33:49.780Z,45
2019-02-02T14:34:59.613Z,45
2019-02-02T14:36:11.732Z,45
2019-02-02T14:37:21.811Z,65
2019-02-02T14:38:32.075Z,65
2019-02-02T14:39:42.240Z,65
2019-02-02T14:40:51.899Z,65
2019-02-02T14:42:01.748Z,65
2019-02-02T14:43:11.572Z,65
2019-02-02T14:44:21.673Z,65
2019-02-02T14:45:34.877Z,55
2019-02-02T14:46:44.882Z,60
2019-02-02T14:47:58.221Z,65
2019-02-02T14:49:10.273Z,55
2019-02-02T14:50:23.381Z,55
2019-02-02T14:51:33.479Z,55
2019-02-02T14:52:43.653Z,55
2019-02-02T14:53:53.505Z,50
2019-02-02T14:55:03.590Z,50
2019-02-02T14:56:13.776Z,50
2019-02-02T14:57:23.840Z,55
2019-02-02T14:58:33.682Z,55
2019-02-02T14:59:43.820Z,55
2019-02-02T15:00:56.324Z,55
2019-02-02T15:02:06.482Z,55
2019-02-02T15:03:28.048Z,55
2019-02-02T15:04:38.168Z,50
2019-02-02T15:05:52.747Z,50
2019-02-02T15:07:05.579Z,55
2019-02-02T15:08:15.681Z,50
2019-02-02T15:09:28.645Z,50
2019-02-02T15:10:38.727Z,50
2019-02-02T15:11:49.032Z,45
2019-02-02T15:12:59.163Z,45
2019-02-02T15:14:08.759Z,40
2019-02-02T15:15:19.057Z,35
2019-02-02T15:16:29.152Z,35
2019-02-02T15:17:39.218Z,35
2019-02-02T15:18:49.587Z,30
2019-02-02T15:19:59.653Z,30
2019-02-02T15:21:09.714Z,30
2019-02-02T15:22:19.542Z,30
2019-02-02T15:23:29.642Z,25
2019-02-02T15:24:39.471Z,25
2019-02-02T15:25:49.604Z,25
2019-02-02T15:26:59.245Z,30
2019-02-02T15:28:10.194Z,25
2019-02-02T15:29:20.306Z,25
2019-02-02T15:30:29.856Z,20
2019-02-02T15:31:39.422Z,20
2019-02-02T15:32:49.528Z,20
2019-02-02T15:33:59.647Z,15
2019-02-02T15:35:09.945Z,15
2019-02-02T15:36:20.042Z,15
2019-02-02T15:37:30.314Z,15
2019-02-02T15:38:40.260Z,10
2019-02-02T15:39:50.452Z,10
2019-02-02T15:41:09.094Z,10
2019-02-02T15:42:19.162Z,10
2019-02-02T15:43:32.006Z,10
2019-02-02T15:44:42.104Z,5
2019-02-02T15:45:52.199Z,5
2019-02-02T15:47:02.572Z,5
2019-02-02T15:48:12.937Z,5
2019-02-02T15:49:23.064Z,5
2019-02-02T15:50:33.149Z,5
2019-02-02T15:51:49.936Z,5
2019-02-02T15:53:00.342Z,0
2019-02-02T15:54:10.183Z,0
2019-02-02T15:55:20.520Z,0
2019-02-02T15:56:30.665Z,0
2019-02-02T15:57:40.756Z,0
2019-02-02T15:58:50.592Z,0
2019-02-02T16:00:00.677Z,0
2019-02-02T16:01:10.753Z,0
2019-02-02T16:02:20.911Z,0
2019-02-02T16:03:31.346Z,0
2019-02-02T16:04:41.458Z,0
2019-02-02T16:05:51.806Z,0
2019-02-02T16:07:01.911Z,0
2019-02-02T16:08:12.010Z,0
2019-02-02T16:09:22.147Z,0
2019-02-02T16:10:32.268Z,0
2019-02-02T16:11:42.354Z,0
2019-02-02T16:12:52.196Z,0
2019-02-02T16:14:02.287Z,0
2019-02-02T16:15:12.515Z,0
2019-02-02T16:16:22.574Z,0
2019-02-02T16:17:33.052Z,0
2019-02-02T16:18:42.366Z,0
2019-02-02T16:19:52.490Z,0
2019-02-02T16:21:02.687Z,0
2019-02-02T16:22:12.766Z,0
2019-02-02T16:23:22.910Z,0
2019-02-02T16:24:33.042Z,0
2019-02-02T16:25:43.635Z,0
2019-02-02T16:26:55.651Z,0
2019-02-02T16:28:05.508Z,0
2019-02-02T16:29:15.723Z,0
2019-02-02T16:30:25.827Z,0
2019-02-02T16:31:35.665Z,0
2019-02-02T16:32:45.739Z,0
2019-02-02T16:34:06.529Z,0
2019-02-02T16:35:16.629Z,0
2019-02-02T16:36:26.713Z,0
2019-02-02T16:37:38.868Z,0
2019-02-02T16:38:49.055Z,0
2019-02-02T16:39:58.924Z,0
2019-02-02T16:41:08.986Z,0
2019-02-02T16:42:19.065Z,0
2019-02-02T16:43:28.897Z,0
2019-02-02T16:44:38.987Z,0
2019-02-02T16:45:49.078Z,0
2019-02-02T16:46:59.145Z,0
2019-02-02T16:48:09.208Z,0
2019-02-02T16:49:19.356Z,0
2019-02-02T16:50:29.535Z,0
2019-02-02T16:51:39.626Z,0
2019-02-02T16:52:49.840Z,0
2019-02-02T16:53:59.937Z,0
2019-02-02T16:55:12.833Z,0
2019-02-02T16:56:22.944Z,0
2019-02-02T16:57:32.777Z,0
2019-02-02T16:58:44.973Z,0
2019-02-02T16:59:54.786Z,0
2019-02-02T17:01:04.878Z,0
2019-02-02T17:02:14.683Z,0
2019-02-02T17:03:24.716Z,0
2019-02-02T17:04:34.825Z,0
2019-02-02T17:05:44.675Z,0
2019-02-02T17:06:55.801Z,0
2019-02-02T17:08:08.035Z,0
2019-02-02T17:09:21.332Z,0
2019-02-02T17:10:31.688Z,0
2019-02-02T17:11:41.788Z,0
2019-02-02T17:12:51.912Z,0
2019-02-02T17:14:02.265Z,0
2019-02-02T17:15:12.107Z,0
2019-02-02T17:16:22.196Z,0
2019-02-02T17:17:32.625Z,0
2019-02-02T17:18:43.339Z,0
2019-02-02T17:19:57.323Z,0
2019-02-02T17:21:08.254Z,0
2019-02-02T17:22:19.137Z,0
2019-02-02T17:23:30.230Z,0
2019-02-02T17:24:41.945Z,0